Terminal Aerodrome Forecast
Issued by NWS

Home | Current Version | Previous Version | Text Only | Print | Product List | Glossary On
Versions: 1 2 3 4 5 6 7 8 9 10 11 12 13 14
000
FTUS43 KAPX 282327
TAFMBL
TAF
KMBL 282327Z 2900/2924 VRB04KT P6SM FEW050 BKN200
     FM290500 16004KT P6SM SCT025 BKN050
     FM290900 18007KT 6SM -SHRA BKN035
      TEMPO 2910/2914 4SM -TSRA BKN025CB
     FM291600 23006KT P6SM SCT080
     FM292300 27008KT P6SM SCT120
      AMD LTD TO CLD VIS AND WIND=

USA.gov is the U.S. government's official web portal to all federal, state and local government web resources and services.